Time;durP1;ratioP1;P1;durP2;ratioP2;P2;SDS_P1;SDS_P2;PMS_P1;PMS_P2;Temp;Humidity;BMP_temperature;BMP_pressure;BME280_temperature;BME280_humidity;BME280_pressure;Samples;Min_cycle;Max_cycle;Signal;HPM_P1;HPM_P2
2022/08/02 00:00:13;;;;;;;14.52;3.30;;;13.80;99.90;;;;;;5060904;28;37834;-64
2022/08/02 00:02:40;;;;;;;11.88;2.85;;;13.80;99.90;;;;;;5032316;28;124912;-64
2022/08/02 00:05:07;;;;;;;13.00;2.90;;;13.70;99.90;;;;;;5023088;28;224178;-64
2022/08/02 00:07:33;;;;;;;12.40;2.60;;;13.80;99.90;;;;;;5021620;28;117951;-64
2022/08/02 00:09:59;;;;;;;10.88;3.05;;;13.80;99.90;;;;;;5069729;28;253869;-64
2022/08/02 00:12:26;;;;;;;12.55;2.78;;;13.80;99.90;;;;;;5006405;28;207579;-64
2022/08/02 00:14:52;;;;;;;12.45;2.55;;;13.80;99.90;;;;;;5056071;28;169700;-64
2022/08/02 00:17:18;;;;;;;10.20;2.78;;;13.80;99.90;;;;;;5022259;28;209227;-64
2022/08/02 00:19:44;;;;;;;15.98;3.15;;;13.80;99.90;;;;;;5041687;28;99095;-64
2022/08/02 00:22:10;;;;;;;13.13;2.80;;;13.70;99.90;;;;;;4991698;28;206765;-64
2022/08/02 00:24:37;;;;;;;11.63;2.60;;;13.70;99.90;;;;;;5028510;28;199858;-64
2022/08/02 00:27:03;;;;;;;11.20;2.80;;;13.70;99.90;;;;;;5016486;28;125409;-64
2022/08/02 00:29:30;;;;;;;12.93;2.88;;;13.70;99.90;;;;;;5040773;28;120782;-64
2022/08/02 00:31:56;;;;;;;13.77;3.13;;;13.70;99.90;;;;;;5012331;28;207332;-65
2022/08/02 00:34:23;;;;;;;12.30;3.05;;;13.70;99.90;;;;;;5057470;28;179936;-64
2022/08/02 00:36:49;;;;;;;12.48;2.90;;;13.70;99.90;;;;;;5023367;28;206574;-63
2022/08/02 00:39:15;;;;;;;13.43;3.47;;;13.70;99.90;;;;;;5042430;28;87557;-64
2022/08/02 00:41:49;;;;;;;14.82;3.25;;;13.60;99.90;;;;;;5011506;28;206394;-64
2022/08/02 00:44:17;;;;;;;12.77;3.08;;;13.60;99.90;;;;;;5043636;28;44737;-63
2022/08/02 00:46:43;;;;;;;13.05;3.28;;;13.50;99.90;;;;;;4995785;28;219453;-64
2022/08/02 00:49:11;;;;;;;12.60;3.40;;;13.50;99.90;;;;;;5052931;28;55584;-63
2022/08/02 00:51:39;;;;;;;12.13;3.10;;;13.50;99.90;;;;;;5015252;28;145779;-64
2022/08/02 00:54:06;;;;;;;13.38;3.08;;;13.40;99.90;;;;;;5021178;28;109935;-64
2022/08/02 00:56:33;;;;;;;12.93;2.63;;;13.40;99.90;;;;;;5003404;28;204406;-64
2022/08/02 00:58:59;;;;;;;12.25;3.17;;;13.40;99.90;;;;;;5043353;28;36406;-64
2022/08/02 01:01:37;;;;;;;12.43;2.90;;;13.40;99.90;;;;;;5025353;28;220479;-63
2022/08/02 01:04:11;;;;;;;15.32;3.03;;;13.30;99.90;;;;;;5045088;28;137637;-63
2022/08/02 01:06:40;;;;;;;13.70;3.30;;;13.30;99.90;;;;;;5005419;28;211326;-64
2022/08/02 01:09:07;;;;;;;12.55;3.20;;;13.30;99.90;;;;;;5054580;28;200805;-64
2022/08/02 01:11:35;;;;;;;10.57;3.17;;;13.20;99.90;;;;;;5008523;28;204494;-64
2022/08/02 01:14:09;;;;;;;13.05;3.30;;;13.20;99.90;;;;;;5055165;28;168500;-64
2022/08/02 01:16:55;;;;;;;13.18;2.95;;;13.20;99.90;;;;;;5026948;28;161751;-64
2022/08/02 01:19:36;;;;;;;14.52;3.25;;;13.20;99.90;;;;;;5036391;28;222600;-64
2022/08/02 01:22:34;;;;;;;13.57;3.17;;;13.10;99.90;;;;;;5029543;28;210983;-63
2022/08/02 01:25:13;;;;;;;15.13;3.42;;;13.10;99.90;;;;;;5041002;28;96252;-64
2022/08/02 01:28:17;;;;;;;14.98;3.10;;;13.00;99.90;;;;;;5005757;28;206313;-64
2022/08/02 01:30:46;;;;;;;13.50;3.20;;;13.00;99.90;;;;;;4992172;28;213987;-63
2022/08/02 01:33:17;;;;;;;16.00;3.40;;;13.00;99.90;;;;;;5050899;28;20056;-65
2022/08/02 01:35:46;;;;;;;13.35;3.03;;;13.00;99.90;;;;;;4976669;28;210036;-65
2022/08/02 01:38:20;;;;;;;12.43;2.88;;;12.90;99.90;;;;;;5050081;28;20044;-64
2022/08/02 01:40:49;;;;;;;14.30;3.27;;;12.90;99.90;;;;;;4993864;28;208248;-65
2022/08/02 01:43:19;;;;;;;10.75;3.00;;;12.90;99.90;;;;;;5055843;28;252936;-64
2022/08/02 01:45:47;;;;;;;13.82;3.13;;;12.90;99.90;;;;;;5006739;28;217034;-64
2022/08/02 01:48:15;;;;;;;12.20;2.83;;;12.90;99.90;;;;;;5082797;28;20036;-63
2022/08/02 01:50:42;;;;;;;14.47;3.30;;;12.80;99.90;;;;;;4974111;28;210682;-64
2022/08/02 01:53:11;;;;;;;9.32;2.92;;;12.80;99.90;;;;;;5050017;28;20403;-63
2022/08/02 01:55:42;;;;;;;13.90;3.00;;;12.80;99.90;;;;;;5002981;28;208722;-63
2022/08/02 01:58:13;;;;;;;13.73;3.20;;;12.80;99.90;;;;;;5051050;28;20052;-63
2022/08/02 02:00:41;;;;;;;13.55;3.33;;;12.80;99.90;;;;;;4999862;28;240938;-64
2022/08/02 02:03:12;;;;;;;11.07;2.92;;;12.80;99.90;;;;;;5049869;28;20048;-64
2022/08/02 02:05:39;;;;;;;13.50;3.53;;;12.80;99.90;;;;;;4988940;28;209566;-64
2022/08/02 02:08:07;;;;;;;10.93;2.97;;;12.80;99.90;;;;;;5066853;28;20055;-66
2022/08/02 02:10:37;;;;;;;12.75;3.47;;;12.80;99.90;;;;;;5016837;28;208735;-64
2022/08/02 02:13:15;;;;;;;15.63;3.47;;;12.80;99.90;;;;;;5032152;28;207188;-63
2022/08/02 02:15:46;;;;;;;11.65;3.22;;;12.80;99.90;;;;;;5008145;28;209886;-64
2022/08/02 02:18:23;;;;;;;;;;;12.80;99.90;;;;;;5050076;28;20056;-64
2022/08/02 02:20:49;;;;;;;14.35;3.80;;;12.80;99.90;;;;;;4991482;28;227708;-64
2022/08/02 02:23:16;;;;;;;14.10;3.63;;;12.80;99.90;;;;;;5068055;28;265103;-63
2022/08/02 02:25:43;;;;;;;12.82;3.60;;;12.80;99.90;;;;;;5034241;28;223263;-65
2022/08/02 02:28:21;;;;;;;14.43;3.88;;;12.80;99.90;;;;;;5066747;28;20541;-64
2022/08/02 02:30:52;;;;;;;16.47;3.60;;;12.80;99.90;;;;;;4996403;28;209491;-63
2022/08/02 02:33:19;;;;;;;12.15;4.00;;;12.80;99.90;;;;;;5030006;28;269264;-62
2022/08/02 02:35:49;;;;;;;12.73;3.67;;;12.80;99.90;;;;;;5015286;28;229225;-63
2022/08/02 02:38:19;;;;;;;15.07;3.63;;;12.80;99.90;;;;;;5056328;28;253649;-63
2022/08/02 02:40:48;;;;;;;13.47;3.60;;;12.80;99.90;;;;;;5034020;28;210072;-63
2022/08/02 02:43:16;;;;;;;16.45;4.13;;;12.80;99.90;;;;;;5065246;28;20067;-63
2022/08/02 02:45:44;;;;;;;12.90;3.47;;;12.80;99.90;;;;;;5006037;28;219120;-63
2022/08/02 02:48:12;;;;;;;12.20;3.72;;;12.80;99.90;;;;;;5066345;28;20051;-64
2022/08/02 02:50:40;;;;;;;13.93;3.50;;;12.80;99.90;;;;;;4988865;28;209694;-63
2022/08/02 02:53:09;;;;;;;12.48;3.67;;;12.80;99.90;;;;;;5052473;28;20063;-64
2022/08/02 02:55:35;;;;;;;12.57;3.72;;;12.80;99.90;;;;;;5013956;28;216054;-64
2022/08/02 02:58:02;;;;;;;12.95;3.78;;;12.80;99.90;;;;;;5070289;28;20064;-64
2022/08/02 03:03:15;;;;;;;11.88;3.30;;;12.80;99.90;;;;;;5010854;28;208972;-64
2022/08/02 03:05:41;;;;;;;16.27;3.90;;;12.80;99.90;;;;;;4962776;28;209806;-64
2022/08/02 03:08:07;;;;;;;13.10;3.85;;;12.80;99.90;;;;;;5069923;28;20418;-64
2022/08/02 03:10:34;;;;;;;13.73;3.85;;;12.80;99.90;;;;;;5028491;28;216653;-63
2022/08/02 03:13:00;;;;;;;13.15;4.05;;;12.80;99.90;;;;;;5052328;28;206592;-64
2022/08/02 03:15:28;;;;;;;14.90;4.10;;;12.80;99.90;;;;;;5054219;28;218401;-64
2022/08/02 03:17:54;;;;;;;13.48;3.85;;;12.80;99.90;;;;;;5020874;28;203519;-64
2022/08/02 03:20:21;;;;;;;14.70;4.43;;;12.80;99.90;;;;;;5061647;28;25344;-63
2022/08/02 03:22:48;;;;;;;13.95;3.85;;;12.80;99.90;;;;;;5008018;28;210649;-64
2022/08/02 03:25:15;;;;;;;11.02;3.63;;;12.80;99.90;;;;;;5040899;28;157808;-63
2022/08/02 03:27:41;;;;;;;14.90;4.43;;;12.80;99.90;;;;;;5012093;28;206808;-64
2022/08/02 03:30:10;;;;;;;14.88;4.03;;;12.80;99.90;;;;;;5040166;28;188668;-63
2022/08/02 03:32:38;;;;;;;11.85;4.00;;;12.80;99.90;;;;;;5013168;28;205980;-64
2022/08/02 03:35:08;;;;;;;13.07;3.80;;;12.80;99.90;;;;;;5044810;28;45130;-64
2022/08/02 03:37:35;;;;;;;14.98;4.10;;;12.80;99.90;;;;;;5011829;28;205284;-64
2022/08/02 03:40:06;;;;;;;16.88;4.10;;;12.80;99.90;;;;;;5054890;28;219876;-64
2022/08/02 03:42:32;;;;;;;13.57;4.07;;;12.80;99.90;;;;;;5024191;28;218354;-64
2022/08/02 03:45:01;;;;;;;13.30;3.88;;;12.80;99.90;;;;;;5045937;28;35714;-64
2022/08/02 03:47:27;;;;;;;12.00;4.32;;;12.70;99.90;;;;;;5016764;28;129733;-64
2022/08/02 03:49:54;;;;;;;17.63;4.00;;;12.80;99.90;;;;;;5043272;28;30620;-64
2022/08/02 03:52:22;;;;;;;15.88;4.30;;;12.70;99.90;;;;;;5022004;28;210014;-64
2022/08/02 03:54:48;;;;;;;12.23;4.00;;;12.70;99.90;;;;;;5056390;28;147770;-64
2022/08/02 03:57:15;;;;;;;11.35;4.10;;;12.80;99.90;;;;;;5027283;28;206854;-64
2022/08/02 03:59:42;;;;;;;17.55;5.15;;;12.70;99.90;;;;;;5044719;28;20047;-64
2022/08/02 04:02:09;;;;;;;12.43;4.43;;;12.80;99.90;;;;;;5010367;28;206373;-64
2022/08/02 04:04:35;;;;;;;13.40;4.50;;;12.80;99.90;;;;;;5027311;28;213781;-64
2022/08/02 04:07:01;;;;;;;14.30;4.88;;;12.70;99.90;;;;;;4996208;28;206525;-64
2022/08/02 04:09:27;;;;;;;15.20;5.10;;;12.80;99.90;;;;;;5052102;28;32757;-64
2022/08/02 04:11:53;;;;;;;15.38;4.57;;;12.90;99.90;;;;;;5039908;28;209523;-64
2022/08/02 04:14:20;;;;;;;17.48;4.75;;;12.80;99.90;;;;;;5042951;28;53707;-64
2022/08/02 04:16:53;;;;;;;15.50;4.60;;;12.80;99.90;;;;;;5017946;28;206651;-64
2022/08/02 04:19:40;;;;;;;13.82;4.43;;;12.90;99.90;;;;;;5040901;28;109199;-64
2022/08/02 04:22:15;;;;;;;21.50;5.03;;;12.90;99.90;;;;;;5006623;28;206141;-64
2022/08/02 04:24:48;;;;;;;17.52;5.07;;;12.90;99.90;;;;;;5044168;28;31951;-64
2022/08/02 04:27:14;;;;;;;16.77;4.97;;;13.00;99.90;;;;;;5012130;28;208124;-64
2022/08/02 04:29:42;;;;;;;14.50;5.00;;;13.00;99.90;;;;;;5042052;28;83477;-64
2022/08/02 04:32:09;;;;;;;17.00;5.38;;;13.00;99.90;;;;;;5005620;28;209283;-64
2022/08/02 04:34:35;;;;;;;13.60;5.15;;;13.10;99.90;;;;;;5020054;28;222281;-64
2022/08/02 04:37:01;;;;;;;12.02;4.57;;;13.10;99.90;;;;;;5040077;28;209934;-64
2022/08/02 04:39:27;;;;;;;16.45;5.28;;;13.20;99.90;;;;;;5044550;28;20052;-63
2022/08/02 04:41:53;;;;;;;15.40;4.97;;;13.20;99.90;;;;;;5023680;28;208431;-63
2022/08/02 04:44:20;;;;;;;15.15;5.03;;;13.30;99.90;;;;;;5040691;28;116808;-63
2022/08/02 04:46:46;;;;;;;13.38;4.93;;;13.30;99.90;;;;;;5035499;28;215568;-63
2022/08/02 04:49:12;;;;;;;15.35;4.80;;;13.40;99.90;;;;;;5036485;28;240994;-64
2022/08/02 04:51:42;;;;;;;16.52;4.93;;;13.40;99.90;;;;;;5005747;28;207217;-63
2022/08/02 04:54:09;;;;;;;13.70;5.07;;;13.40;99.90;;;;;;5062974;28;272149;-63
2022/08/02 04:56:39;;;;;;;15.35;4.78;;;13.50;99.90;;;;;;5011953;28;206351;-64
2022/08/02 04:59:06;;;;;;;13.95;4.93;;;13.50;99.90;;;;;;5038541;28;189054;-64
2022/08/02 05:01:32;;;;;;;17.45;5.10;;;13.60;99.90;;;;;;5028145;28;209639;-64
2022/08/02 05:03:58;;;;;;;14.23;5.00;;;13.60;99.90;;;;;;5038827;28;207833;-64
2022/08/02 05:06:25;;;;;;;15.52;4.90;;;13.70;99.90;;;;;;5005842;28;206584;-64
2022/08/02 05:08:51;;;;;;;13.45;5.00;;;13.70;99.90;;;;;;5017297;28;203371;-64
2022/08/02 05:11:17;;;;;;;15.95;5.10;;;13.80;99.90;;;;;;4993638;28;206673;-64
2022/08/02 05:13:43;;;;;;;14.35;4.78;;;13.80;99.90;;;;;;5039956;28;100216;-64
2022/08/02 05:16:09;;;;;;;14.80;4.85;;;13.90;99.90;;;;;;5024111;28;206399;-63
2022/08/02 05:18:35;;;;;;;15.80;5.30;;;13.90;99.90;;;;;;5033942;28;270631;-64
2022/08/02 05:21:01;;;;;;;14.50;4.60;;;14.00;99.90;;;;;;5020649;28;217823;-64
2022/08/02 05:23:27;;;;;;;14.50;4.70;;;14.10;99.90;;;;;;5033140;28;253714;-63
2022/08/02 05:25:53;;;;;;;14.38;4.90;;;14.10;99.90;;;;;;5012547;28;138217;-63
2022/08/02 05:28:20;;;;;;;15.15;5.05;;;14.20;99.90;;;;;;5031134;28;268726;-63
2022/08/02 05:30:46;;;;;;;13.20;4.25;;;14.20;99.90;;;;;;5040912;28;212685;-64
2022/08/02 05:33:12;;;;;;;14.30;4.75;;;14.30;99.90;;;;;;5049843;28;20045;-63
2022/08/02 05:35:38;;;;;;;13.13;4.23;;;14.40;99.90;;;;;;4984096;28;227217;-64
2022/08/02 05:38:04;;;;;;;13.73;4.30;;;14.50;99.90;;;;;;5084243;28;20486;-64
2022/08/02 05:40:30;;;;;;;10.38;3.90;;;14.50;99.90;;;;;;5046708;28;214273;-64
2022/08/02 05:42:56;;;;;;;15.25;4.38;;;14.60;99.90;;;;;;5044266;28;71089;-64
2022/08/02 05:45:22;;;;;;;16.27;4.43;;;14.70;99.90;;;;;;5055473;28;110966;-64
2022/08/02 05:47:49;;;;;;;15.30;4.00;;;14.80;99.90;;;;;;5003640;28;206999;-64
2022/08/02 05:50:15;;;;;;;11.75;3.97;;;14.90;99.90;;;;;;5053758;28;202130;-64
2022/08/02 05:52:49;;;;;;;12.75;4.30;;;14.90;99.90;;;;;;5038718;28;208972;-64
2022/08/02 05:55:17;;;;;;;13.77;4.25;;;15.00;99.90;;;;;;5035641;28;211984;-64
2022/08/02 05:57:47;;;;;;;12.77;3.85;;;15.20;99.90;;;;;;5007513;28;206500;-63
2022/08/02 06:00:15;;;;;;;15.85;4.25;;;15.20;99.90;;;;;;5063710;28;270969;-63
2022/08/02 06:03:15;;;;;;;15.45;4.05;;;15.40;99.90;;;;;;5037356;28;207143;-63
2022/08/02 06:05:52;;;;;;;17.07;4.33;;;15.40;99.90;;;;;;4989974;28;220920;-63
2022/08/02 06:08:22;;;;;;;16.52;4.30;;;15.50;99.90;;;;;;5062787;28;259533;-64
2022/08/02 06:10:50;;;;;;;12.30;3.97;;;15.60;99.90;;;;;;5034803;28;209807;-64
2022/08/02 06:13:16;;;;;;;19.23;4.50;;;15.80;99.90;;;;;;5032537;28;271390;-64
2022/08/02 06:15:43;;;;;;;24.75;4.28;;;16.00;99.90;;;;;;5021112;28;211022;-64
2022/08/02 06:18:09;;;;;;;14.48;4.03;;;16.30;99.90;;;;;;5067055;28;20057;-64
2022/08/02 06:20:35;;;;;;;17.40;3.97;;;16.50;99.90;;;;;;5009127;28;209880;-64
2022/08/02 06:23:07;;;;;;;15.38;4.35;;;16.70;99.90;;;;;;5050370;28;20044;-64
2022/08/02 06:25:35;;;;;;;16.60;4.20;;;17.00;99.90;;;;;;5005957;28;209556;-65
2022/08/02 06:28:04;;;;;;;18.58;4.13;;;17.20;99.90;;;;;;5033026;28;207625;-64
2022/08/02 06:30:31;;;;;;;15.32;4.20;;;17.40;99.90;;;;;;5009017;28;209579;-64
2022/08/02 06:32:58;;;;;;;18.98;4.00;;;17.60;99.90;;;;;;5034566;28;206364;-65
2022/08/02 06:35:50;;;;;;;11.40;3.47;;;17.70;99.90;;;;;;5070222;28;80084;-65
2022/08/02 06:38:31;;;;;;;14.02;3.60;;;17.80;99.90;;;;;;4991126;28;254747;-65
2022/08/02 06:41:02;;;;;;;16.60;4.10;;;18.00;99.90;;;;;;5008268;28;210137;-65
2022/08/02 06:43:40;;;;;;;15.02;3.67;;;18.10;99.90;;;;;;5068093;28;265509;-64
2022/08/02 06:46:06;;;;;;;13.57;3.55;;;18.30;99.90;;;;;;5019173;28;210874;-65
2022/08/02 06:48:34;;;;;;;14.20;3.50;;;18.30;99.90;;;;;;5032359;28;264251;-65
2022/08/02 06:51:03;;;;;;;15.02;3.40;;;18.40;99.90;;;;;;5021932;28;209411;-65
2022/08/02 06:53:30;;;;;;;12.37;3.30;;;18.40;99.90;;;;;;5048891;28;259251;-65
2022/08/02 06:55:56;;;;;;;15.52;3.55;;;18.60;99.90;;;;;;5020506;28;206918;-65
2022/08/02 06:58:23;;;;;;;11.13;3.00;;;18.70;99.90;;;;;;5013785;28;275818;-66
2022/08/02 07:00:49;;;;;;;10.70;3.08;;;18.90;99.90;;;;;;5014505;28;209885;-65
2022/08/02 07:03:16;;;;;;;12.77;2.75;;;19.20;99.90;;;;;;5055067;28;265840;-65
2022/08/02 07:05:47;;;;;;;12.00;2.85;;;19.50;99.90;;;;;;4990320;28;211072;-66
2022/08/02 07:08:14;;;;;;;13.05;3.10;;;19.80;99.90;;;;;;5065912;28;20044;-66
2022/08/02 07:10:41;;;;;;;15.20;2.80;;;20.10;99.90;;;;;;4988143;28;209554;-66
2022/08/02 07:13:07;;;;;;;13.43;2.40;;;20.20;99.90;;;;;;5048718;28;20056;-66
2022/08/02 07:15:33;;;;;;;12.27;2.72;;;20.50;99.90;;;;;;5008832;28;213512;-66
2022/08/02 07:17:59;;;;;;;10.90;2.63;;;20.60;99.90;;;;;;5033726;28;175819;-66
2022/08/02 07:20:25;;;;;;;12.35;2.90;;;20.80;99.90;;;;;;5018342;28;202610;-65
2022/08/02 07:22:51;;;;;;;12.77;2.53;;;20.90;99.90;;;;;;5000676;28;206187;-65
2022/08/02 07:25:17;;;;;;;12.68;2.40;;;20.80;99.90;;;;;;5063755;28;270916;-66
2022/08/02 07:27:44;;;;;;;12.55;2.88;;;20.80;99.90;;;;;;4985739;28;212620;-66
2022/08/02 07:30:10;;;;;;;11.50;2.55;;;20.70;99.90;;;;;;5050673;28;255186;-66
2022/08/02 07:32:36;;;;;;;12.95;2.10;;;20.80;99.90;;;;;;5021522;28;211555;-66
2022/08/02 07:35:03;;;;;;;10.13;2.15;;;20.90;99.80;;;;;;5020827;28;157301;-66
2022/08/02 07:37:31;;;;;;;13.07;2.30;;;21.10;99.80;;;;;;5035691;28;184422;-66
2022/08/02 07:39:58;;;;;;;8.07;2.10;;;21.40;99.80;;;;;;5059890;28;59718;-66
2022/08/02 07:42:24;;;;;;;11.68;2.35;;;21.70;99.00;;;;;;5008442;28;206650;-66
2022/08/02 07:44:51;;;;;;;8.40;1.98;;;21.80;98.40;;;;;;5064509;28;261557;-66
2022/08/02 07:47:17;;;;;;;10.95;2.28;;;21.80;98.10;;;;;;5035448;28;209509;-65
2022/08/02 07:49:44;;;;;;;10.48;1.80;;;22.00;97.80;;;;;;5041668;28;129558;-67
2022/08/02 07:52:10;;;;;;;9.15;2.00;;;22.10;97.90;;;;;;5036026;28;209341;-67
2022/08/02 07:54:36;;;;;;;12.82;2.00;;;22.40;97.10;;;;;;5042235;28;90686;-67
2022/08/02 07:57:03;;;;;;;8.93;1.88;;;22.60;97.40;;;;;;5014971;28;190845;-67
2022/08/02 07:59:29;;;;;;;10.57;2.35;;;22.80;96.50;;;;;;5036768;28;240168;-67
2022/08/02 08:01:55;;;;;;;8.10;1.60;;;22.80;96.50;;;;;;5004367;28;209241;-67
2022/08/02 08:04:21;;;;;;;10.00;1.60;;;23.00;95.80;;;;;;5027586;28;163834;-67
2022/08/02 08:06:50;;;;;;;8.00;1.92;;;23.00;94.80;;;;;;5010353;28;213556;-67
2022/08/02 08:09:17;;;;;;;8.25;1.77;;;23.20;95.20;;;;;;5060632;28;47768;-68
2022/08/02 08:11:44;;;;;;;9.40;1.50;;;23.30;93.60;;;;;;5034837;28;214089;-67
2022/08/02 08:14:10;;;;;;;12.25;1.80;;;23.40;94.10;;;;;;5037628;28;220822;-67
2022/08/02 08:16:36;;;;;;;11.88;1.80;;;23.50;94.10;;;;;;4989429;28;206234;-65
2022/08/02 08:19:03;;;;;;;7.70;1.50;;;23.70;93.70;;;;;;5045482;28;251901;-66
2022/08/02 08:21:29;;;;;;;9.27;1.70;;;23.70;92.90;;;;;;5010271;28;210385;-67
2022/08/02 08:23:55;;;;;;;11.63;1.70;;;23.90;93.00;;;;;;5039707;28;158639;-67
2022/08/02 08:26:22;;;;;;;9.52;1.75;;;24.20;93.70;;;;;;5035647;28;212588;-67
2022/08/02 08:28:48;;;;;;;6.43;1.40;;;24.50;92.30;;;;;;5037659;28;242679;-68
2022/08/02 08:31:14;;;;;;;7.10;1.80;;;24.40;91.20;;;;;;5026056;28;213910;-68
2022/08/02 08:33:40;;;;;;;9.02;1.60;;;24.30;91.40;;;;;;5044374;28;20059;-67
2022/08/02 08:36:07;;;;;;;8.80;1.50;;;24.50;91.50;;;;;;5034925;28;209526;-68
2022/08/02 08:38:33;;;;;;;8.00;1.30;;;24.60;90.70;;;;;;5034762;28;262114;-67
2022/08/02 08:41:00;;;;;;;9.40;1.88;;;24.60;90.10;;;;;;5007456;28;206489;-67
2022/08/02 08:43:26;;;;;;;9.90;1.40;;;24.70;90.50;;;;;;5049877;28;274278;-68
2022/08/02 08:45:52;;;;;;;7.88;1.60;;;24.80;87.50;;;;;;5045480;28;214038;-67
2022/08/02 08:48:21;;;;;;;8.43;1.60;;;25.00;90.10;;;;;;5047921;28;273211;-67
2022/08/02 08:50:59;;;;;;;7.47;1.50;;;25.10;88.10;;;;;;5019463;28;218679;-68
2022/08/02 08:53:28;;;;;;;9.43;1.40;;;25.10;87.90;;;;;;5050003;28;264636;-68
2022/08/02 08:55:56;;;;;;;9.65;1.50;;;25.40;88.40;;;;;;5035779;28;209514;-68
2022/08/02 08:58:23;;;;;;;7.30;1.58;;;25.60;89.50;;;;;;5032112;28;278409;-68
2022/08/02 09:00:49;;;;;;;17.05;1.70;;;25.80;84.90;;;;;;5001381;28;209858;-68
2022/08/02 09:03:15;;;;;;;7.72;1.50;;;26.00;85.80;;;;;;5038909;28;259633;-68
2022/08/02 09:05:45;;;;;;;6.95;1.38;;;26.20;85.30;;;;;;5019512;28;209740;-68
2022/08/02 09:08:12;;;;;;;8.07;1.50;;;26.50;81.50;;;;;;5067731;28;20057;-68
2022/08/02 09:10:47;;;;;;;6.50;1.30;;;26.80;84.20;;;;;;5028115;28;236354;-68
2022/08/02 09:13:14;;;;;;;8.48;1.50;;;27.30;81.90;;;;;;5082041;28;21316;-69
2022/08/02 09:15:42;;;;;;;6.95;1.42;;;27.20;79.20;;;;;;4990145;28;213120;-68
2022/08/02 09:18:09;;;;;;;7.30;1.38;;;27.00;75.90;;;;;;5067255;28;20518;-68
2022/08/02 09:20:52;;;;;;;7.33;1.30;;;27.10;75.50;;;;;;5005540;28;258018;-68
2022/08/02 09:23:18;;;;;;;9.45;1.40;;;27.10;73.40;;;;;;5031311;28;280956;-68
2022/08/02 09:25:55;;;;;;;7.13;1.30;;;27.00;74.20;;;;;;5034205;28;209711;-69
2022/08/02 09:28:26;;;;;;;7.65;1.40;;;26.90;72.20;;;;;;5062826;28;276521;-69
2022/08/02 09:30:56;;;;;;;6.70;1.30;;;26.90;70.80;;;;;;5034941;28;210465;-68
2022/08/02 09:33:28;;;;;;;7.90;1.48;;;27.10;71.80;;;;;;5048507;28;266741;-69
2022/08/02 09:36:01;;;;;;;4.88;1.23;;;27.10;72.00;;;;;;5031247;28;183533;-68
2022/08/02 09:38:28;;;;;;;10.05;1.65;;;27.30;71.00;;;;;;5014851;28;275357;-67
2022/08/02 09:40:55;;;;;;;7.50;1.30;;;27.20;71.20;;;;;;5033518;28;219509;-68
2022/08/02 09:43:33;;;;;;;7.25;1.50;;;27.00;71.70;;;;;;5062272;28;281096;-68
2022/08/02 09:46:08;;;;;;;5.72;1.60;;;26.90;71.90;;;;;;5020051;28;206698;-68
2022/08/02 09:48:34;;;;;;;7.72;1.55;;;26.80;72.00;;;;;;5037985;28;294732;-67
2022/08/02 09:51:00;;;;;;;7.82;1.80;;;26.50;72.10;;;;;;4988392;28;207570;-68
2022/08/02 09:53:26;;;;;;;9.13;1.70;;;26.50;73.00;;;;;;5062884;28;267262;-67
2022/08/02 09:55:56;;;;;;;9.02;1.83;;;26.70;73.60;;;;;;5018940;28;210028;-68
2022/08/02 09:58:22;;;;;;;8.52;1.83;;;26.80;72.10;;;;;;5062937;28;268966;-68
2022/08/02 10:00:57;;;;;;;7.05;1.65;;;26.90;73.50;;;;;;5008710;28;209877;-67
2022/08/02 10:03:23;;;;;;;7.73;1.70;;;27.20;73.20;;;;;;5047391;28;275487;-68
2022/08/02 10:05:52;;;;;;;8.05;1.52;;;27.50;74.20;;;;;;5035447;28;215490;-68
2022/08/02 10:08:19;;;;;;;8.55;2.13;;;27.80;74.10;;;;;;5047030;28;266195;-68
2022/08/02 10:10:47;;;;;;;6.53;1.70;;;27.90;73.00;;;;;;5019078;28;213150;-68
2022/08/02 10:13:14;;;;;;;7.75;1.95;;;27.90;73.70;;;;;;5066088;28;20413;-68
2022/08/02 10:15:40;;;;;;;9.10;2.20;;;28.00;73.50;;;;;;4972561;28;219705;-69
2022/08/02 10:18:07;;;;;;;8.75;2.10;;;27.80;73.20;;;;;;5066827;28;20048;-67
2022/08/02 10:20:43;;;;;;;8.38;2.00;;;27.60;74.00;;;;;;5003051;28;247256;-68
2022/08/02 10:23:12;;;;;;;8.57;2.10;;;27.60;74.60;;;;;;5047174;28;205392;-68
2022/08/02 10:25:39;;;;;;;9.15;2.30;;;27.60;74.50;;;;;;5013569;28;209173;-69
2022/08/02 10:28:06;;;;;;;9.93;2.40;;;27.70;75.00;;;;;;5082873;28;20067;-69
2022/08/02 10:30:36;;;;;;;8.60;2.53;;;27.90;75.40;;;;;;5010997;28;213553;-68
2022/08/02 10:33:05;;;;;;;7.95;2.20;;;28.10;75.80;;;;;;5048955;28;207811;-68
2022/08/02 10:35:34;;;;;;;10.85;2.40;;;28.30;75.90;;;;;;5041165;28;210704;-68
2022/08/02 10:38:06;;;;;;;10.05;2.42;;;28.40;75.30;;;;;;5036505;28;207511;-68
2022/08/02 10:40:47;;;;;;;9.38;2.38;;;28.40;75.80;;;;;;5015401;28;213892;-69
2022/08/02 10:43:35;;;;;;;8.32;2.40;;;28.30;74.00;;;;;;5031831;28;206413;-68
2022/08/02 10:46:31;;;;;;;8.95;2.40;;;28.40;75.30;;;;;;5012755;28;205792;-69
2022/08/02 10:49:21;;;;;;;10.00;2.20;;;28.60;74.30;;;;;;5058464;28;24980;-68
2022/08/02 10:51:59;;;;;;;11.35;2.35;;;28.50;75.30;;;;;;5031578;28;196605;-69
2022/08/02 10:54:28;;;;;;;7.78;2.28;;;28.90;74.20;;;;;;5060087;28;268115;-68
2022/08/02 10:56:55;;;;;;;9.00;2.30;;;29.10;74.00;;;;;;5005688;28;207148;-69
2022/08/02 10:59:23;;;;;;;9.15;2.53;;;29.30;72.80;;;;;;5061698;28;285517;-68
2022/08/02 11:01:50;;;;;;;7.97;2.13;;;29.10;73.10;;;;;;5033295;28;213374;-70
2022/08/02 11:04:16;;;;;;;8.77;2.38;;;29.20;73.70;;;;;;5017959;28;224472;-68
2022/08/02 11:07:10;;;;;;;7.43;2.35;;;29.40;73.10;;;;;;5006151;28;204483;-69
2022/08/02 11:09:37;;;;;;;7.75;2.28;;;29.90;71.10;;;;;;5053473;28;180393;-69
2022/08/02 11:12:07;;;;;;;8.93;2.05;;;30.00;70.80;;;;;;5006989;28;210047;-69
2022/08/02 11:14:36;;;;;;;9.68;2.67;;;29.90;71.10;;;;;;5044596;28;55546;-69
2022/08/02 11:17:04;;;;;;;8.93;2.60;;;29.70;71.10;;;;;;5029283;28;205857;-67
2022/08/02 11:19:30;;;;;;;10.63;2.70;;;29.40;71.90;;;;;;5065250;28;267040;-67
2022/08/02 11:22:04;;;;;;;9.73;2.45;;;29.40;72.10;;;;;;5013150;28;209924;-68
2022/08/02 11:24:35;;;;;;;8.20;3.05;;;29.40;71.90;;;;;;5070234;28;162190;-68
2022/08/02 11:27:03;;;;;;;11.57;2.85;;;29.10;72.20;;;;;;5006140;28;207693;-68
2022/08/02 11:29:42;;;;;;;9.80;2.55;;;29.00;72.70;;;;;;5066046;28;258100;-68
2022/08/02 11:32:15;;;;;;;11.82;2.92;;;29.20;73.50;;;;;;5022245;28;210892;-68
2022/08/02 11:34:43;;;;;;;8.23;2.67;;;29.00;72.40;;;;;;5057777;28;131093;-68
2022/08/02 11:37:10;;;;;;;9.70;2.67;;;28.80;72.80;;;;;;5014826;28;208056;-68
2022/08/02 11:39:36;;;;;;;9.30;2.63;;;29.00;73.10;;;;;;5056583;28;169587;-69
2022/08/02 11:42:03;;;;;;;12.77;2.90;;;28.90;72.80;;;;;;5028108;28;208870;-69
2022/08/02 11:44:39;;;;;;;9.23;2.50;;;28.90;73.70;;;;;;5064851;28;266056;-68
2022/08/02 11:47:07;;;;;;;8.70;2.78;;;28.90;73.60;;;;;;5011221;28;206767;-69
2022/08/02 11:49:33;;;;;;;9.63;2.05;;;28.60;74.40;;;;;;5046555;28;172464;-66
2022/08/02 11:52:05;;;;;;;7.80;1.95;;;28.60;72.90;;;;;;5011189;28;206301;-68
2022/08/02 11:54:34;;;;;;;7.25;2.10;;;29.00;74.00;;;;;;5045530;28;20134;-68
2022/08/02 11:57:21;;;;;;;9.30;2.20;;;28.90;72.40;;;;;;5025714;28;206582;-68
2022/08/02 11:59:52;;;;;;;8.55;2.13;;;28.90;73.20;;;;;;5039295;28;245970;-68
2022/08/02 12:02:20;;;;;;;8.95;2.08;;;29.30;73.70;;;;;;5037347;28;212951;-68
2022/08/02 12:05:04;;;;;;;9.73;2.15;;;29.20;72.90;;;;;;5038334;28;245617;-68
2022/08/02 12:07:39;;;;;;;7.13;2.30;;;28.90;72.80;;;;;;5027410;28;209087;-68
2022/08/02 12:10:14;;;;;;;7.65;2.30;;;28.60;73.30;;;;;;5038734;28;217989;-68
2022/08/02 12:12:58;;;;;;;7.10;1.95;;;28.70;72.90;;;;;;5007942;28;209314;-68
2022/08/02 12:15:36;;;;;;;7.18;2.13;;;28.80;73.00;;;;;;5039877;28;133587;-68
2022/08/02 12:20:53;;;;;;;11.68;3.13;;;28.90;72.30;;;;;;5010020;28;209004;-68
2022/08/02 12:23:19;;;;;;;9.05;3.40;;;29.00;72.30;;;;;;5064834;28;234172;-68
2022/08/02 12:25:45;;;;;;;9.63;3.10;;;29.00;73.00;;;;;;5019072;28;208580;-68
2022/08/02 12:28:24;;;;;;;9.40;3.75;;;29.40;73.00;;;;;;5068667;28;20048;-68
2022/08/02 12:30:51;;;;;;;10.20;3.55;;;28.80;73.10;;;;;;5005277;28;212686;-67
2022/08/02 12:33:18;;;;;;;10.73;3.85;;;28.70;73.70;;;;;;5048526;28;265724;-67
2022/08/02 12:35:44;;;;;;;9.32;4.00;;;28.50;74.20;;;;;;5035437;28;216214;-67
2022/08/02 12:38:11;;;;;;;9.68;3.88;;;28.50;74.50;;;;;;5068440;28;20059;-68
2022/08/02 12:40:37;;;;;;;9.60;3.63;;;28.40;74.90;;;;;;5001908;28;216566;-68
2022/08/02 12:43:06;;;;;;;10.00;4.68;;;28.30;75.60;;;;;;5085073;28;20048;-68
2022/08/02 12:45:48;;;;;;;9.45;4.35;;;28.40;75.70;;;;;;5036991;28;209188;-68
2022/08/02 12:48:16;;;;;;;11.10;4.82;;;28.40;76.80;;;;;;5025115;28;207588;-66